Time;durP1;ratioP1;P1;durP2;ratioP2;P2;SDS_P1;SDS_P2;PMS_P1;PMS_P2;Temp;Humidity;BMP_temperature;BMP_pressure;BME280_temperature;BME280_humidity;BME280_pressure;Samples;Min_cycle;Max_cycle;Signal;HPM_P1;HPM_P2
2023/10/19 00:01:11;;;;;;;50.22;26.35;;;7.70;99.90;;;;;;5130230;27;20023;-89
2023/10/19 00:03:37;;;;;;;50.40;30.27;;;7.70;99.90;;;;;;5124217;27;20023;-89
2023/10/19 00:06:05;;;;;;;42.65;26.95;;;7.80;99.90;;;;;;5131814;27;20034;-89
2023/10/19 00:08:41;;;;;;;56.80;31.63;;;7.80;99.90;;;;;;5137587;27;20058;-88
2023/10/19 00:11:13;;;;;;;46.58;28.80;;;7.80;99.90;;;;;;5137837;27;20027;-87
2023/10/19 00:13:39;;;;;;;56.22;32.40;;;7.80;99.90;;;;;;5126668;27;20031;-88
2023/10/19 00:16:12;;;;;;;55.10;32.15;;;7.70;99.90;;;;;;5121600;27;20023;-89
2023/10/19 00:18:42;;;;;;;44.13;28.63;;;7.80;99.90;;;;;;5126050;27;20046;-88
2023/10/19 00:21:19;;;;;;;50.85;31.35;;;7.80;99.90;;;;;;5131081;27;20023;-88
2023/10/19 00:23:57;;;;;;;45.08;28.38;;;7.80;99.90;;;;;;5124702;27;20083;-89
2023/10/19 00:26:29;;;;;;;44.97;29.70;;;7.80;99.90;;;;;;5130218;27;20034;-89
2023/10/19 00:28:59;;;;;;;53.35;30.00;;;7.80;99.90;;;;;;5123970;27;20172;-89
2023/10/19 00:31:27;;;;;;;53.13;29.42;;;7.80;99.90;;;;;;5124775;27;20020;-88
2023/10/19 00:33:56;;;;;;;45.35;28.05;;;7.80;99.90;;;;;;5124055;27;20069;-89
2023/10/19 00:36:26;;;;;;;44.55;28.00;;;7.90;99.90;;;;;;5113920;27;20032;-87
2023/10/19 00:38:56;;;;;;;48.20;32.33;;;7.80;99.90;;;;;;5125677;27;20076;-88
2023/10/19 00:41:29;;;;;;;39.90;27.30;;;7.90;99.90;;;;;;5129552;27;20114;-88
2023/10/19 00:44:11;;;;;;;44.75;28.23;;;7.90;99.90;;;;;;5136661;27;20031;-88
2023/10/19 00:46:42;;;;;;;57.45;34.03;;;7.90;99.90;;;;;;5129869;27;20023;-87
2023/10/19 00:49:12;;;;;;;49.17;32.70;;;7.80;99.90;;;;;;5123810;27;20480;-87
2023/10/19 00:51:44;;;;;;;52.20;30.75;;;7.90;99.90;;;;;;5127787;27;20027;-86
2023/10/19 00:54:35;;;;;;;50.42;30.10;;;7.80;99.90;;;;;;5133935;27;20026;-87
2023/10/19 00:57:13;;;;;;;45.00;29.23;;;7.80;99.90;;;;;;5127561;27;20045;-85
2023/10/19 00:59:49;;;;;;;49.42;28.83;;;7.80;99.90;;;;;;5127047;27;20027;-86
2023/10/19 01:02:17;;;;;;;41.92;26.92;;;7.80;99.90;;;;;;5131116;27;20092;-86
2023/10/19 01:04:50;;;;;;;48.30;29.20;;;7.80;99.90;;;;;;5129319;27;20072;-86
2023/10/19 01:09:59;;;;;;;46.35;30.38;;;7.80;99.90;;;;;;5130230;27;20039;-87
2023/10/19 01:15:12;;;;;;;43.80;29.25;;;7.80;99.90;;;;;;5127442;27;20038;-87
2023/10/19 01:17:38;;;;;;;45.78;27.30;;;7.80;99.90;;;;;;5131538;27;20484;-86
2023/10/19 01:20:20;;;;;;;45.50;29.45;;;7.80;99.90;;;;;;5123592;27;20112;-86
2023/10/19 01:22:53;;;;;;;59.25;34.17;;;7.80;99.90;;;;;;5127771;27;20043;-86
2023/10/19 01:25:24;;;;;;;57.15;32.65;;;7.90;99.90;;;;;;5128123;27;20030;-85
2023/10/19 01:27:54;;;;;;;50.28;30.58;;;7.80;99.90;;;;;;5129391;27;20039;-86
2023/10/19 01:30:20;;;;;;;45.85;28.77;;;7.90;99.90;;;;;;5120996;27;20448;-85
2023/10/19 01:32:49;;;;;;;49.88;31.10;;;7.90;99.90;;;;;;5125252;27;20055;-85
2023/10/19 01:35:15;;;;;;;46.55;30.83;;;7.80;99.90;;;;;;5126553;27;20088;-86
2023/10/19 01:37:43;;;;;;;47.60;29.70;;;7.80;99.90;;;;;;5139369;27;20023;-85
2023/10/19 01:40:09;;;;;;;44.20;27.30;;;7.80;99.90;;;;;;5124166;27;20118;-86
2023/10/19 01:42:34;;;;;;;39.88;25.67;;;7.80;99.90;;;;;;5135904;27;20050;-86
2023/10/19 01:45:05;;;;;;;53.25;28.08;;;7.80;99.90;;;;;;5128319;27;20439;-86
2023/10/19 01:47:36;;;;;;;49.38;29.10;;;7.80;99.90;;;;;;5137160;27;20061;-86
2023/10/19 01:50:06;;;;;;;51.83;31.13;;;7.80;99.90;;;;;;5126417;27;20035;-86
2023/10/19 01:52:32;;;;;;;46.20;29.65;;;7.80;99.90;;;;;;5134084;27;20031;-86
2023/10/19 01:55:07;;;;;;;45.30;29.15;;;7.90;99.90;;;;;;5129741;27;20092;-86
2023/10/19 01:57:34;;;;;;;38.65;25.73;;;7.80;99.90;;;;;;5136230;27;20026;-87
2023/10/19 02:00:08;;;;;;;45.33;28.27;;;7.80;99.90;;;;;;5135819;27;20439;-87
2023/10/19 02:02:35;;;;;;;47.78;29.45;;;7.80;99.90;;;;;;5132585;27;20037;-87
2023/10/19 02:05:04;;;;;;;49.55;29.73;;;7.80;99.90;;;;;;5133461;27;20551;-86
2023/10/19 02:07:34;;;;;;;51.30;28.85;;;7.80;99.90;;;;;;5125343;27;20035;-87
2023/10/19 02:10:00;;;;;;;46.13;27.75;;;7.80;99.90;;;;;;5119506;27;20055;-87
2023/10/19 02:12:29;;;;;;;49.92;32.85;;;7.80;99.90;;;;;;5127799;27;20049;-87
2023/10/19 02:14:56;;;;;;;40.17;27.20;;;7.80;99.90;;;;;;5124363;27;20079;-86
2023/10/19 02:17:31;;;;;;;57.15;35.15;;;7.80;99.90;;;;;;5125270;27;20463;-87
2023/10/19 02:19:56;;;;;;;54.17;36.53;;;7.70;99.90;;;;;;5127585;27;20026;-88
2023/10/19 02:22:28;;;;;;;56.85;35.78;;;7.80;99.90;;;;;;5131888;27;20039;-85
2023/10/19 02:24:54;;;;;;;61.83;35.83;;;7.80;99.90;;;;;;5123088;27;20034;-86
2023/10/19 02:27:22;;;;;;;60.42;37.33;;;7.80;99.90;;;;;;5134311;27;20046;-86
2023/10/19 02:29:47;;;;;;;65.38;37.63;;;7.80;99.90;;;;;;5126340;27;20424;-86
2023/10/19 02:32:13;;;;;;;70.13;41.42;;;7.80;99.90;;;;;;5128103;27;20027;-87
2023/10/19 02:34:39;;;;;;;63.85;38.92;;;7.80;99.90;;;;;;5119486;27;20101;-88
2023/10/19 02:37:04;;;;;;;64.10;39.88;;;7.80;99.90;;;;;;5116332;27;20027;-87
2023/10/19 02:39:34;;;;;;;66.10;39.95;;;7.80;99.90;;;;;;5122033;27;20031;-87
2023/10/19 02:42:02;;;;;;;60.15;36.67;;;7.80;99.90;;;;;;5124767;27;20399;-88
2023/10/19 02:44:30;;;;;;;67.80;42.55;;;7.80;99.90;;;;;;5119650;27;20035;-88
2023/10/19 02:46:59;;;;;;;67.10;41.58;;;7.80;99.90;;;;;;5125996;27;20027;-88
2023/10/19 02:49:29;;;;;;;63.70;39.47;;;7.80;99.90;;;;;;5135800;27;20027;-88
2023/10/19 02:51:55;;;;;;;74.70;46.00;;;7.80;99.90;;;;;;5131852;27;20039;-89
2023/10/19 02:54:24;;;;;;;70.88;44.08;;;7.80;99.90;;;;;;5128208;27;20487;-88
2023/10/19 02:56:56;;;;;;;75.10;42.28;;;7.80;99.90;;;;;;5130481;27;20502;-88
2023/10/19 02:59:23;;;;;;;60.65;38.67;;;7.70;99.90;;;;;;5129972;27;20031;-91
2023/10/19 03:02:39;;;;;;;75.22;45.33;;;7.70;99.90;;;;;;5105339;27;20022;-90
2023/10/19 03:04:42;;;;;;;62.05;39.15;;;7.70;99.90;;;;;;5108498;27;20392;-90
2023/10/19 03:07:09;;;;;;;64.35;39.42;;;7.70;99.90;;;;;;5131176;27;20043;-89
2023/10/19 03:09:36;;;;;;;69.57;45.60;;;7.70;99.90;;;;;;5122811;27;20015;-90
2023/10/19 03:12:09;;;;;;;73.60;43.13;;;7.70;99.90;;;;;;5137709;27;20435;-91
2023/10/19 03:14:37;;;;;;;69.05;43.50;;;7.70;99.90;;;;;;5131005;27;20114;-94
2023/10/19 03:17:08;;;;;;;74.13;44.33;;;7.70;99.90;;;;;;5129026;27;20039;-90
2023/10/19 03:19:34;;;;;;;70.03;42.15;;;7.70;99.90;;;;;;5133151;27;20018;-91
2023/10/19 03:22:00;;;;;;;76.63;45.50;;;7.70;99.90;;;;;;5123715;27;20191;-90
2023/10/19 03:24:35;;;;;;;63.67;40.53;;;7.70;99.90;;;;;;5129540;27;20409;-91
2023/10/19 03:27:21;;;;;;;62.45;38.28;;;7.60;99.90;;;;;;5127003;27;20751;-92
2023/10/19 03:29:54;;;;;;;73.53;44.35;;;7.60;99.90;;;;;;5115677;27;20235;-91
2023/10/19 03:32:26;;;;;;;65.88;42.90;;;7.60;99.90;;;;;;5130371;27;20027;-92
2023/10/19 03:34:59;;;;;;;72.20;42.58;;;7.60;99.90;;;;;;5129458;27;20030;-91
2023/10/19 03:37:36;;;;;;;71.45;43.30;;;7.60;99.90;;;;;;5111337;27;20019;-92
2023/10/19 03:40:07;;;;;;;75.47;45.22;;;7.60;99.90;;;;;;5127835;27;20390;-90
2023/10/19 03:42:40;;;;;;;66.82;44.70;;;7.60;99.90;;;;;;5114969;27;20023;-91
2023/10/19 03:45:15;;;;;;;64.53;42.03;;;7.60;99.90;;;;;;5126272;27;20038;-92
2023/10/19 03:47:44;;;;;;;81.10;46.28;;;7.60;99.90;;;;;;5131365;27;20062;-92
2023/10/19 03:50:14;;;;;;;67.57;44.10;;;7.60;99.90;;;;;;5120025;27;20058;-92
2023/10/19 03:52:40;;;;;;;64.03;40.55;;;7.50;99.90;;;;;;5131985;27;20369;-91
2023/10/19 03:55:11;;;;;;;66.20;40.83;;;7.60;99.90;;;;;;5125740;27;20031;-91
2023/10/19 03:57:46;;;;;;;60.35;40.55;;;7.50;99.90;;;;;;5109029;27;20428;-91
2023/10/19 04:00:17;;;;;;;61.25;36.85;;;7.50;99.90;;;;;;5129697;27;20082;-89
2023/10/19 04:02:43;;;;;;;61.28;39.22;;;7.50;99.90;;;;;;5108185;27;20514;-88
2023/10/19 04:05:15;;;;;;;58.20;39.72;;;7.50;99.90;;;;;;5124663;27;20122;-89
2023/10/19 04:07:43;;;;;;;70.13;43.22;;;7.50;99.90;;;;;;5130887;27;20339;-88
2023/10/19 04:10:09;;;;;;;68.75;40.78;;;7.50;99.90;;;;;;5130431;27;20099;-88
2023/10/19 04:12:48;;;;;;;62.30;39.60;;;7.50;99.90;;;;;;5133516;27;20019;-87
2023/10/19 04:15:16;;;;;;;71.22;42.63;;;7.50;99.90;;;;;;5129481;27;20032;-85
2023/10/19 04:17:46;;;;;;;71.88;47.08;;;7.50;99.90;;;;;;5134294;27;20031;-85
2023/10/19 04:22:49;;;;;;;67.32;43.00;;;7.50;99.90;;;;;;5122175;27;20135;-85
2023/10/19 04:25:25;;;;;;;63.35;40.60;;;7.50;99.90;;;;;;5133943;27;20024;-83
2023/10/19 04:27:51;;;;;;;64.55;39.90;;;7.40;99.90;;;;;;5124035;27;20035;-84
2023/10/19 04:30:21;;;;;;;62.28;39.17;;;7.40;99.90;;;;;;5123691;27;20246;-84
2023/10/19 04:32:51;;;;;;;61.38;40.05;;;7.40;99.90;;;;;;5126391;27;20051;-85
2023/10/19 04:35:29;;;;;;;71.28;43.25;;;7.40;99.90;;;;;;5123330;27;20018;-84
2023/10/19 04:38:07;;;;;;;65.60;42.30;;;7.50;99.90;;;;;;5124801;27;20402;-84
2023/10/19 04:40:33;;;;;;;64.93;44.33;;;7.40;99.90;;;;;;5126850;27;20054;-84
2023/10/19 04:43:01;;;;;;;59.78;39.75;;;7.40;99.90;;;;;;5125947;27;20019;-84
2023/10/19 04:45:27;;;;;;;50.25;35.05;;;7.40;99.90;;;;;;5130049;27;20059;-85
2023/10/19 04:47:54;;;;;;;57.17;39.70;;;7.40;99.90;;;;;;5134238;27;20070;-84
2023/10/19 04:50:21;;;;;;;59.10;38.63;;;7.40;99.90;;;;;;5130599;27;20027;-84
2023/10/19 04:52:47;;;;;;;52.22;34.20;;;7.40;99.90;;;;;;5130157;27;20031;-85
2023/10/19 04:55:13;;;;;;;61.05;40.75;;;7.40;99.90;;;;;;5129651;27;20027;-84
2023/10/19 04:57:38;;;;;;;58.70;38.53;;;7.40;99.90;;;;;;5126493;27;20029;-84
2023/10/19 05:00:05;;;;;;;57.00;38.08;;;7.40;99.90;;;;;;5132153;27;20080;-85
2023/10/19 05:02:30;;;;;;;68.70;43.92;;;7.40;99.90;;;;;;5131223;27;20023;-84
2023/10/19 05:04:56;;;;;;;68.38;42.35;;;7.40;99.90;;;;;;5125385;27;20371;-84
2023/10/19 05:07:24;;;;;;;60.17;39.70;;;7.40;99.90;;;;;;5122684;27;20050;-84
2023/10/19 05:09:50;;;;;;;64.68;40.03;;;7.40;99.90;;;;;;5131297;27;20075;-84
2023/10/19 05:12:16;;;;;;;53.58;36.60;;;7.40;99.90;;;;;;5130306;27;20056;-84
2023/10/19 05:14:45;;;;;;;54.10;34.67;;;7.40;99.90;;;;;;5122677;27;20026;-84
2023/10/19 05:17:14;;;;;;;53.22;36.00;;;7.40;99.90;;;;;;5124064;27;20118;-84
2023/10/19 05:19:41;;;;;;;46.28;30.70;;;7.40;99.90;;;;;;5133173;27;20122;-84
2023/10/19 05:22:09;;;;;;;38.40;27.48;;;7.30;99.90;;;;;;5129982;27;20035;-84
2023/10/19 05:24:35;;;;;;;42.60;29.30;;;7.40;99.90;;;;;;5121986;27;20487;-85
2023/10/19 05:27:01;;;;;;;42.58;28.67;;;7.40;99.90;;;;;;5126683;27;20056;-84
2023/10/19 05:29:26;;;;;;;42.17;28.75;;;7.40;99.90;;;;;;5127884;27;20137;-85
2023/10/19 05:31:57;;;;;;;43.20;29.42;;;7.40;99.90;;;;;;5131691;27;20055;-85
2023/10/19 05:34:26;;;;;;;38.75;25.33;;;7.40;99.90;;;;;;5131874;27;20046;-85
2023/10/19 05:36:58;;;;;;;30.90;22.00;;;7.40;99.90;;;;;;5123660;27;20035;-85
2023/10/19 05:39:27;;;;;;;27.75;19.77;;;7.40;99.90;;;;;;5131620;27;20027;-86
2023/10/19 05:41:58;;;;;;;28.63;20.23;;;7.30;99.90;;;;;;5134962;27;20371;-85
2023/10/19 05:44:25;;;;;;;27.10;19.00;;;7.40;99.90;;;;;;5129298;27;20024;-86
2023/10/19 05:46:51;;;;;;;27.60;20.45;;;7.40;99.90;;;;;;5129702;27;20027;-85
2023/10/19 05:49:19;;;;;;;32.88;21.80;;;7.40;99.90;;;;;;5124541;27;20030;-85
2023/10/19 05:51:48;;;;;;;37.15;25.05;;;7.40;99.90;;;;;;5112924;27;20055;-86
2023/10/19 05:54:13;;;;;;;36.08;23.48;;;7.40;99.90;;;;;;5116212;27;20050;-85
2023/10/19 05:56:39;;;;;;;32.65;22.83;;;7.40;99.90;;;;;;5128457;27;20434;-85
2023/10/19 05:59:06;;;;;;;27.98;19.40;;;7.40;99.90;;;;;;5138629;27;20127;-86
2023/10/19 06:01:32;;;;;;;28.17;19.40;;;7.40;99.90;;;;;;5130938;27;20054;-86
2023/10/19 06:03:57;;;;;;;26.65;19.52;;;7.40;99.90;;;;;;5122913;27;20463;-85
2023/10/19 06:06:26;;;;;;;31.00;22.27;;;7.40;99.90;;;;;;5122482;27;20050;-87
2023/10/19 06:08:53;;;;;;;28.13;19.70;;;7.40;99.90;;;;;;5108113;27;20039;-85
2023/10/19 06:11:19;;;;;;;28.35;20.50;;;7.40;99.90;;;;;;5125574;27;20023;-86
2023/10/19 06:13:46;;;;;;;26.88;19.65;;;7.40;99.90;;;;;;5107813;27;20027;-84
2023/10/19 06:16:12;;;;;;;27.60;20.88;;;7.40;99.90;;;;;;5120161;27;20019;-85
2023/10/19 06:18:37;;;;;;;30.95;21.55;;;7.40;99.90;;;;;;5100999;27;20090;-86
2023/10/19 06:21:04;;;;;;;32.40;21.35;;;7.40;99.90;;;;;;5122931;27;20033;-86
2023/10/19 06:23:31;;;;;;;28.85;20.63;;;7.40;99.90;;;;;;5114492;27;20418;-86
2023/10/19 06:25:57;;;;;;;23.70;17.13;;;7.40;99.90;;;;;;5115049;27;20023;-86
2023/10/19 06:28:22;;;;;;;28.00;17.90;;;7.40;99.90;;;;;;5127077;27;20054;-86
2023/10/19 06:30:48;;;;;;;22.02;16.15;;;7.50;99.90;;;;;;5131151;27;20023;-87
2023/10/19 06:33:14;;;;;;;23.25;17.00;;;7.40;99.90;;;;;;5127089;27;20038;-86
2023/10/19 06:35:40;;;;;;;22.33;15.15;;;7.40;99.90;;;;;;5124048;27;20027;-87
2023/10/19 06:38:08;;;;;;;17.88;13.25;;;7.40;99.90;;;;;;5121755;27;20027;-87
2023/10/19 06:40:37;;;;;;;18.95;13.88;;;7.50;99.90;;;;;;5122642;27;20023;-87
2023/10/19 06:43:05;;;;;;;19.00;13.40;;;7.50;99.90;;;;;;5130966;27;20038;-87
2023/10/19 06:45:31;;;;;;;24.63;16.65;;;7.50;99.90;;;;;;5125546;27;20444;-87
2023/10/19 06:48:03;;;;;;;21.48;14.65;;;7.50;99.90;;;;;;5123760;27;20031;-85
2023/10/19 06:50:30;;;;;;;24.73;18.27;;;7.50;99.90;;;;;;5125300;27;20035;-86
2023/10/19 06:52:56;;;;;;;21.50;14.02;;;7.50;99.90;;;;;;5120894;27;20346;-84
2023/10/19 06:55:22;;;;;;;22.67;15.50;;;7.50;99.90;;;;;;5123905;27;20050;-88
2023/10/19 06:57:53;;;;;;;17.73;13.65;;;7.50;99.90;;;;;;5112203;27;20058;-88
2023/10/19 07:00:21;;;;;;;19.20;14.00;;;7.50;99.90;;;;;;5131083;27;20114;-87
2023/10/19 07:02:48;;;;;;;17.48;12.88;;;7.50;99.90;;;;;;5123514;27;20031;-86
2023/10/19 07:05:18;;;;;;;13.85;11.50;;;7.50;99.90;;;;;;5122829;27;20083;-87
2023/10/19 07:07:44;;;;;;;14.88;10.65;;;7.50;99.90;;;;;;5118493;27;20039;-88
2023/10/19 07:10:14;;;;;;;21.55;13.82;;;7.60;99.90;;;;;;5117432;27;20033;-87
2023/10/19 07:12:44;;;;;;;19.40;12.93;;;7.50;99.90;;;;;;5126327;27;20047;-88
2023/10/19 07:15:13;;;;;;;16.25;12.38;;;7.50;99.90;;;;;;5130257;27;20022;-87
2023/10/19 07:17:43;;;;;;;21.08;14.32;;;7.50;99.90;;;;;;5114316;27;20236;-87
2023/10/19 07:20:26;;;;;;;18.65;12.15;;;7.50;99.90;;;;;;5124435;27;20028;-88
2023/10/19 07:22:56;;;;;;;19.13;12.88;;;7.50;99.90;;;;;;5130889;27;20035;-87
2023/10/19 07:25:25;;;;;;;24.70;12.68;;;7.50;99.90;;;;;;5126334;27;20291;-88
2023/10/19 07:27:52;;;;;;;21.00;12.68;;;7.60;99.90;;;;;;5120629;27;20037;-87
2023/10/19 07:30:21;;;;;;;19.65;13.52;;;7.60;99.90;;;;;;5117573;27;20121;-89
2023/10/19 07:32:54;;;;;;;17.65;13.43;;;7.60;99.90;;;;;;5114954;27;20048;-88
2023/10/19 07:35:22;;;;;;;21.13;13.85;;;7.60;99.90;;;;;;5125156;27;20027;-89
2023/10/19 07:37:50;;;;;;;19.63;13.80;;;7.60;99.90;;;;;;5121971;27;20033;-86
2023/10/19 07:40:16;;;;;;;20.02;14.43;;;7.70;99.90;;;;;;5124392;27;20557;-89
2023/10/19 07:42:42;;;;;;;22.98;15.40;;;7.70;99.90;;;;;;5122018;27;20050;-88
2023/10/19 07:45:11;;;;;;;22.00;14.23;;;7.60;99.90;;;;;;5123401;27;20023;-87
2023/10/19 07:47:40;;;;;;;22.42;14.93;;;7.70;99.90;;;;;;5113117;27;20432;-87
2023/10/19 07:50:12;;;;;;;21.45;14.00;;;7.70;99.90;;;;;;5119662;27;20471;-84
2023/10/19 07:52:38;;;;;;;26.90;16.20;;;7.70;99.90;;;;;;5125424;27;20083;-86
2023/10/19 07:55:06;;;;;;;31.50;17.70;;;7.70;99.90;;;;;;5133770;27;20026;-87
2023/10/19 07:57:34;;;;;;;28.20;18.23;;;7.70;99.90;;;;;;5125672;27;20042;-89
2023/10/19 08:00:08;;;;;;;29.15;17.55;;;7.80;99.90;;;;;;5132913;27;20023;-86
2023/10/19 08:02:37;;;;;;;38.65;20.63;;;7.80;99.90;;;;;;5115155;27;20526;-89
2023/10/19 08:05:06;;;;;;;49.00;27.52;;;7.80;99.90;;;;;;5126048;27;20359;-89
2023/10/19 08:07:34;;;;;;;55.40;26.75;;;7.80;99.90;;;;;;5126136;27;20047;-90
2023/10/19 08:10:00;;;;;;;41.67;23.17;;;7.80;99.90;;;;;;5131647;27;20074;-90
2023/10/19 08:12:26;;;;;;;32.40;19.95;;;7.80;99.90;;;;;;5134286;27;20031;-89
2023/10/19 08:14:53;;;;;;;31.63;19.10;;;7.90;99.90;;;;;;5128415;27;20055;-87
2023/10/19 08:17:18;;;;;;;34.70;18.65;;;7.90;99.90;;;;;;5128359;27;20033;-90
2023/10/19 08:19:44;;;;;;;35.65;21.35;;;7.90;99.90;;;;;;5120942;27;20023;-88
2023/10/19 08:22:10;;;;;;;33.92;19.25;;;8.00;99.90;;;;;;5115953;27;20038;-87
2023/10/19 08:24:35;;;;;;;34.00;19.45;;;8.00;99.90;;;;;;5126782;27;20023;-89
2023/10/19 08:27:05;;;;;;;33.95;20.58;;;8.10;99.90;;;;;;5108555;27;20027;-89
2023/10/19 08:29:31;;;;;;;39.17;21.52;;;8.10;99.90;;;;;;5124136;27;20034;-90
2023/10/19 08:31:57;;;;;;;40.45;22.33;;;8.10;99.90;;;;;;5118920;27;20038;-88
2023/10/19 08:34:25;;;;;;;42.10;22.80;;;8.20;99.90;;;;;;5128703;27;20039;-89
2023/10/19 08:36:51;;;;;;;42.47;24.63;;;8.20;99.90;;;;;;5101827;28;20023;-90
2023/10/19 08:39:17;;;;;;;43.70;26.63;;;8.30;99.90;;;;;;5116583;27;20026;-86
2023/10/19 08:41:43;;;;;;;46.50;25.15;;;8.30;99.90;;;;;;5119935;27;20398;-89
2023/10/19 08:44:12;;;;;;;43.05;25.15;;;8.40;99.90;;;;;;5114721;27;20304;-89
2023/10/19 08:46:43;;;;;;;40.15;22.08;;;8.40;99.90;;;;;;5119163;27;20036;-86
2023/10/19 08:49:12;;;;;;;40.03;22.15;;;8.40;99.90;;;;;;5120736;27;20039;-89
2023/10/19 08:51:38;;;;;;;39.50;22.48;;;8.50;99.90;;;;;;5135327;27;20383;-89
2023/10/19 08:54:10;;;;;;;36.40;21.27;;;8.50;99.90;;;;;;5124311;27;20105;-89
2023/10/19 08:56:42;;;;;;;32.80;19.80;;;8.50;99.90;;;;;;5128898;27;20419;-84
2023/10/19 08:59:10;;;;;;;30.75;19.27;;;8.50;99.90;;;;;;5113683;27;20039;-89
2023/10/19 09:01:38;;;;;;;31.05;18.02;;;8.60;99.90;;;;;;5124495;27;20024;-86
2023/10/19 09:04:08;;;;;;;31.38;19.25;;;8.60;99.90;;;;;;5122206;27;20058;-89
2023/10/19 09:06:42;;;;;;;37.45;21.80;;;8.60;99.90;;;;;;5129894;27;20118;-90
2023/10/19 09:09:19;;;;;;;34.97;20.30;;;8.70;99.90;;;;;;5117224;27;20031;-89
2023/10/19 09:11:48;;;;;;;39.65;22.10;;;8.80;99.90;;;;;;5131790;27;20023;-90
2023/10/19 09:14:14;;;;;;;47.72;25.98;;;8.80;99.90;;;;;;5125530;27;20062;-92
2023/10/19 09:16:56;;;;;;;47.20;26.55;;;8.90;99.90;;;;;;5127731;27;20387;-89
2023/10/19 09:19:47;;;;;;;41.00;24.08;;;9.00;99.90;;;;;;5131910;27;20027;-89
2023/10/19 09:22:18;;;;;;;44.85;24.55;;;9.00;99.90;;;;;;5120064;27;20391;-90
2023/10/19 09:24:49;;;;;;;40.28;22.75;;;9.00;99.90;;;;;;5130702;27;20387;-89
2023/10/19 09:27:17;;;;;;;42.80;23.00;;;9.00;99.90;;;;;;5134518;27;20114;-90
2023/10/19 09:29:43;;;;;;;44.35;25.52;;;9.10;99.90;;;;;;5133462;27;20046;-90
2023/10/19 09:32:09;;;;;;;49.83;28.38;;;9.10;99.90;;;;;;5132026;27;20076;-89
2023/10/19 09:34:36;;;;;;;49.03;25.80;;;9.10;99.90;;;;;;5105809;27;20414;-91
2023/10/19 09:37:06;;;;;;;49.97;27.42;;;9.10;99.90;;;;;;5122323;27;20035;-91
2023/10/19 09:39:35;;;;;;;45.90;27.75;;;9.20;99.90;;;;;;5123977;27;20092;-89
2023/10/19 09:42:14;;;;;;;56.40;28.60;;;9.30;99.90;;;;;;5127160;27;20112;-93
2023/10/19 09:44:51;;;;;;;49.13;28.00;;;9.40;99.90;;;;;;5128180;27;20031;-91
2023/10/19 09:47:35;;;;;;;46.58;26.98;;;9.50;99.90;;;;;;5114260;27;20050;-88
2023/10/19 09:50:01;;;;;;;39.78;23.75;;;9.50;99.90;;;;;;5125259;27;20171;-91
2023/10/19 09:52:32;;;;;;;43.53;25.50;;;9.60;99.90;;;;;;5128785;27;20027;-96
2023/10/19 09:55:08;;;;;;;38.40;24.50;;;9.60;99.90;;;;;;5104993;27;20022;-91
2023/10/19 09:57:41;;;;;;;44.30;26.52;;;9.70;99.90;;;;;;5101247;27;20051;-91
2023/10/19 10:00:14;;;;;;;43.72;24.63;;;9.70;99.90;;;;;;5101794;27;20043;-93
2023/10/19 10:02:45;;;;;;;51.35;28.58;;;9.80;99.90;;;;;;5102487;27;20031;-88
2023/10/19 10:05:42;;;;;;;44.90;27.00;;;9.80;99.90;;;;;;5097028;27;20030;-92
2023/10/19 10:08:23;;;;;;;42.13;27.83;;;9.80;99.90;;;;;;5111070;27;20480;-90
2023/10/19 10:10:51;;;;;;;55.28;31.05;;;9.80;99.90;;;;;;5120894;27;20055;-89
2023/10/19 10:13:37;;;;;;;57.72;31.88;;;9.90;99.90;;;;;;5112055;27;20023;-92
2023/10/19 10:16:06;;;;;;;55.33;31.50;;;9.90;99.90;;;;;;5112309;27;20042;-94
2023/10/19 10:18:35;;;;;;;59.75;34.13;;;9.90;99.90;;;;;;5101542;27;20028;-92
2023/10/19 10:21:08;;;;;;;53.42;29.45;;;9.90;99.90;;;;;;5104994;27;20035;-92
2023/10/19 10:23:42;;;;;;;50.58;28.23;;;9.90;99.90;;;;;;5102700;27;20039;-91
2023/10/19 10:26:12;;;;;;;49.78;27.63;;;9.90;99.90;;;;;;5109264;27;20028;-91
2023/10/19 10:28:38;;;;;;;52.33;26.23;;;9.80;99.90;;;;;;5100408;27;20036;-88
2023/10/19 10:31:22;;;;;;;46.00;26.00;;;9.80;99.90;;;;;;5104267;27;20088;-91
2023/10/19 10:33:49;;;;;;;49.60;25.67;;;9.90;99.90;;;;;;5111136;27;20111;-92
2023/10/19 10:36:19;;;;;;;59.95;32.13;;;9.80;99.90;;;;;;5105112;27;20079;-93
2023/10/19 10:39:05;;;;;;;57.15;30.85;;;9.90;99.90;;;;;;5110312;27;20039;-92
2023/10/19 10:41:31;;;;;;;45.47;25.02;;;10.00;99.90;;;;;;5108589;27;20081;-91
2023/10/19 10:43:58;;;;;;;58.58;29.77;;;10.00;99.90;;;;;;5119377;27;20035;-89
2023/10/19 10:46:31;;;;;;;54.25;28.45;;;10.00;99.90;;;;;;5106526;27;20035;-90
2023/10/19 10:48:57;;;;;;;62.00;31.52;;;10.00;99.90;;;;;;5117547;27;20054;-87
2023/10/19 10:51:29;;;;;;;51.83;26.83;;;10.20;99.90;;;;;;5111436;27;20475;-91
2023/10/19 10:53:57;;;;;;;46.90;24.85;;;10.20;99.90;;;;;;5105142;27;20019;-89
2023/10/19 10:56:23;;;;;;;46.97;25.38;;;10.20;99.90;;;;;;5116737;27;20030;-87
2023/10/19 10:58:52;;;;;;;47.78;25.92;;;10.20;99.90;;;;;;5117694;27;20098;-90
2023/10/19 11:01:33;;;;;;;57.78;29.83;;;10.20;99.90;;;;;;5127204;27;20461;-90
2023/10/19 11:04:11;;;;;;;58.85;30.90;;;10.20;99.90;;;;;;5128725;27;20482;-90
2023/10/19 11:06:56;;;;;;;51.67;28.58;;;10.30;99.90;;;;;;5122196;27;20027;-87
2023/10/19 11:09:22;;;;;;;58.97;31.88;;;10.20;99.90;;;;;;5124504;27;20125;-85
2023/10/19 11:11:49;;;;;;;63.67;32.47;;;10.30;99.90;;;;;;5124686;27;20038;-90
2023/10/19 11:14:17;;;;;;;76.22;38.08;;;10.30;99.90;;;;;;5115098;27;20391;-86
2023/10/19 11:16:43;;;;;;;59.50;31.60;;;10.30;99.90;;;;;;5104188;27;20114;-90
2023/10/19 11:19:09;;;;;;;54.80;30.10;;;10.30;99.90;;;;;;5089269;27;20115;-90
2023/10/19 11:21:35;;;;;;;53.85;28.48;;;10.30;99.90;;;;;;5083342;28;20371;-88
2023/10/19 11:24:01;;;;;;;60.17;31.70;;;10.30;99.90;;;;;;5125210;27;20120;-89
2023/10/19 11:26:27;;;;;;;57.35;30.33;;;10.40;99.90;;;;;;5120480;27;21201;-87
2023/10/19 11:29:09;;;;;;;76.43;38.35;;;10.40;99.90;;;;;;5113238;27;20491;-90
2023/10/19 11:31:40;;;;;;;65.15;33.55;;;10.40;99.90;;;;;;5101786;27;20499;-91
2023/10/19 11:34:08;;;;;;;78.63;35.97;;;10.40;99.90;;;;;;5108194;27;20043;-85
2023/10/19 11:36:34;;;;;;;69.90;36.15;;;10.50;99.90;;;;;;5115024;27;20031;-91
2023/10/19 11:39:00;;;;;;;64.22;34.15;;;10.50;99.90;;;;;;5111514;27;20027;-94
2023/10/19 11:41:25;;;;;;;61.97;32.97;;;10.60;99.90;;;;;;5115584;27;20309;-91
2023/10/19 11:43:51;;;;;;;67.95;32.95;;;10.50;99.90;;;;;;5116567;27;20027;-92
2023/10/19 11:46:25;;;;;;;68.72;34.92;;;10.50;99.90;;;;;;5114817;27;20579;-89
2023/10/19 11:48:52;;;;;;;68.75;35.10;;;10.60;99.90;;;;;;5104820;27;20414;-88
2023/10/19 11:51:18;;;;;;;69.78;34.92;;;10.60;99.90;;;;;;5117288;27;20028;-91
2023/10/19 11:53:44;;;;;;;60.88;32.60;;;10.70;99.90;;;;;;5106850;27;20088;-91
2023/10/19 11:56:12;;;;;;;77.80;39.30;;;10.60;99.90;;;;;;5120826;27;20073;-91
2023/10/19 11:58:40;;;;;;;65.47;33.25;;;10.70;99.90;;;;;;5113747;27;20081;-91
2023/10/19 12:01:08;;;;;;;63.22;32.58;;;10.70;99.90;;;;;;5120330;27;20030;-92
2023/10/19 12:03:36;;;;;;;68.82;34.58;;;10.70;99.90;;;;;;5122623;27;20102;-89
2023/10/19 12:06:06;;;;;;;65.25;34.10;;;10.80;99.90;;;;;;5119330;27;20462;-93
2023/10/19 12:08:35;;;;;;;69.18;35.17;;;10.80;99.90;;;;;;5102463;27;20035;-92
2023/10/19 12:11:15;;;;;;;77.20;38.35;;;10.80;99.90;;;;;;5115966;27;20070;-91
2023/10/19 12:13:43;;;;;;;76.82;37.28;;;10.80;99.90;;;;;;5125818;27;20023;-92
2023/10/19 12:16:12;;;;;;;84.93;41.65;;;10.80;99.90;;;;;;5118531;27;20027;-92
2023/10/19 12:18:48;;;;;;;71.32;34.90;;;10.90;99.90;;;;;;5116741;27;20216;-94
2023/10/19 12:21:14;;;;;;;82.10;41.80;;;11.00;99.90;;;;;;5103619;28;20103;-93
2023/10/19 12:23:50;;;;;;;75.55;35.72;;;11.00;99.90;;;;;;5110953;27;20056;-91
2023/10/19 12:26:16;;;;;;;85.97;41.65;;;11.00;99.90;;;;;;5108640;27;20019;-90
2023/10/19 12:28:43;;;;;;;102.75;45.90;;;11.00;99.90;;;;;;5107965;28;20032;-92
2023/10/19 12:31:09;;;;;;;90.85;45.28;;;11.10;99.90;;;;;;5121332;28;20023;-90
2023/10/19 12:33:38;;;;;;;91.13;43.70;;;11.10;99.90;;;;;;5089674;28;20051;-91
2023/10/19 12:38:50;;;;;;;94.38;43.75;;;11.10;99.90;;;;;;5114749;28;20073;-93
2023/10/19 12:41:19;;;;;;;85.53;41.97;;;11.00;99.90;;;;;;5104066;28;20039;-93
2023/10/19 12:43:46;;;;;;;102.35;47.28;;;11.00;99.90;;;;;;5110942;28;20598;-94
2023/10/19 12:46:13;;;;;;;82.63;42.20;;;11.00;99.90;;;;;;5098759;27;20079;-93
2023/10/19 12:48:39;;;;;;;106.15;49.05;;;11.00;99.90;;;;;;5113533;27;20535;-93
2023/10/19 12:51:11;;;;;;;92.47;42.47;;;11.00;99.90;;;;;;5118895;27;20476;-94
2023/10/19 12:53:38;;;;;;;108.53;46.75;;;11.00;99.90;;;;;;5096538;28;20024;-93
2023/10/19 12:56:04;;;;;;;102.75;45.58;;;10.90;99.90;;;;;;5111588;27;20022;-92
2023/10/19 12:58:31;;;;;;;90.97;43.85;;;10.90;99.90;;;;;;5120636;27;20055;-92